sensor_id;sensor_type;location;lat;lon;timestamp;P1;durP1;ratioP1;P2;durP2;ratioP2
3901;SDS011;1966;49.908;9.156;2023-06-10T00:01:44;13.30;;;11.03;;
3901;SDS011;1966;49.908;9.156;2023-06-10T00:06:46;12.53;;;11.23;;
3901;SDS011;1966;49.908;9.156;2023-06-10T00:11:47;12.80;;;11.60;;
3901;SDS011;1966;49.908;9.156;2023-06-10T00:16:48;12.23;;;10.90;;
3901;SDS011;1966;49.908;9.156;2023-06-10T00:21:47;13.13;;;11.53;;
3901;SDS011;1966;49.908;9.156;2023-06-10T00:26:47;15.40;;;13.80;;
3901;SDS011;1966;49.908;9.156;2023-06-10T00:31:47;15.33;;;13.73;;
3901;SDS011;1966;49.908;9.156;2023-06-10T00:36:47;14.03;;;12.63;;
3901;SDS011;1966;49.908;9.156;2023-06-10T00:41:46;11.77;;;10.67;;
3901;SDS011;1966;49.908;9.156;2023-06-10T00:46:45;11.60;;;10.40;;
3901;SDS011;1966;49.908;9.156;2023-06-10T00:51:46;12.27;;;10.97;;
3901;SDS011;1966;49.908;9.156;2023-06-10T00:56:45;14.17;;;12.77;;
3901;SDS011;1966;49.908;9.156;2023-06-10T01:01:45;15.47;;;13.83;;
3901;SDS011;1966;49.908;9.156;2023-06-10T01:06:47;14.63;;;12.53;;
3901;SDS011;1966;49.908;9.156;2023-06-10T01:11:52;18.67;;;14.40;;
3901;SDS011;1966;49.908;9.156;2023-06-10T01:16:54;18.10;;;16.20;;
3901;SDS011;1966;49.908;9.156;2023-06-10T01:21:56;17.47;;;14.97;;
3901;SDS011;1966;49.908;9.156;2023-06-10T01:26:59;14.07;;;12.70;;
3901;SDS011;1966;49.908;9.156;2023-06-10T01:32:00;15.67;;;14.07;;
3901;SDS011;1966;49.908;9.156;2023-06-10T01:37:02;13.60;;;12.17;;
3901;SDS011;1966;49.908;9.156;2023-06-10T01:42:02;13.00;;;11.70;;
3901;SDS011;1966;49.908;9.156;2023-06-10T01:47:02;16.43;;;14.77;;
3901;SDS011;1966;49.908;9.156;2023-06-10T01:52:04;22.33;;;16.60;;
3901;SDS011;1966;49.908;9.156;2023-06-10T01:57:03;20.13;;;16.67;;
3901;SDS011;1966;49.908;9.156;2023-06-10T02:02:04;16.70;;;15.00;;
3901;SDS011;1966;49.908;9.156;2023-06-10T02:07:05;17.83;;;12.50;;
3901;SDS011;1966;49.908;9.156;2023-06-10T02:12:04;13.20;;;11.80;;
3901;SDS011;1966;49.908;9.156;2023-06-10T02:17:04;12.83;;;11.60;;
3901;SDS011;1966;49.908;9.156;2023-06-10T02:22:05;13.03;;;11.73;;
3901;SDS011;1966;49.908;9.156;2023-06-10T02:27:04;15.47;;;13.90;;
3901;SDS011;1966;49.908;9.156;2023-06-10T02:32:05;14.80;;;13.07;;
3901;SDS011;1966;49.908;9.156;2023-06-10T02:37:06;15.83;;;12.97;;
3901;SDS011;1966;49.908;9.156;2023-06-10T02:42:06;13.53;;;11.67;;
3901;SDS011;1966;49.908;9.156;2023-06-10T02:47:05;14.30;;;11.63;;
3901;SDS011;1966;49.908;9.156;2023-06-10T02:52:06;14.13;;;11.30;;
3901;SDS011;1966;49.908;9.156;2023-06-10T02:57:06;14.57;;;12.83;;
3901;SDS011;1966;49.908;9.156;2023-06-10T03:02:05;14.40;;;12.90;;
3901;SDS011;1966;49.908;9.156;2023-06-10T03:07:06;14.80;;;12.37;;
3901;SDS011;1966;49.908;9.156;2023-06-10T03:12:07;15.23;;;11.40;;
3901;SDS011;1966;49.908;9.156;2023-06-10T03:17:06;15.50;;;13.87;;
3901;SDS011;1966;49.908;9.156;2023-06-10T03:22:09;15.60;;;13.57;;
3901;SDS011;1966;49.908;9.156;2023-06-10T03:27:08;13.50;;;12.10;;
3901;SDS011;1966;49.908;9.156;2023-06-10T03:32:08;12.93;;;11.63;;
3901;SDS011;1966;49.908;9.156;2023-06-10T03:37:09;12.80;;;11.50;;
3901;SDS011;1966;49.908;9.156;2023-06-10T03:42:08;13.63;;;12.13;;
3901;SDS011;1966;49.908;9.156;2023-06-10T03:47:07;13.07;;;11.77;;
3901;SDS011;1966;49.908;9.156;2023-06-10T03:52:07;13.53;;;12.13;;
3901;SDS011;1966;49.908;9.156;2023-06-10T03:57:08;13.50;;;12.10;;
3901;SDS011;1966;49.908;9.156;2023-06-10T04:02:07;16.23;;;14.53;;
3901;SDS011;1966;49.908;9.156;2023-06-10T04:07:07;19.80;;;16.67;;
3901;SDS011;1966;49.908;9.156;2023-06-10T04:12:08;19.53;;;17.40;;
3901;SDS011;1966;49.908;9.156;2023-06-10T04:17:08;18.00;;;16.30;;
3901;SDS011;1966;49.908;9.156;2023-06-10T04:22:08;18.83;;;16.33;;
3901;SDS011;1966;49.908;9.156;2023-06-10T04:27:08;19.47;;;17.37;;
3901;SDS011;1966;49.908;9.156;2023-06-10T04:32:08;18.97;;;16.90;;
3901;SDS011;1966;49.908;9.156;2023-06-10T04:37:07;19.90;;;17.80;;
3901;SDS011;1966;49.908;9.156;2023-06-10T04:42:07;21.00;;;17.70;;
3901;SDS011;1966;49.908;9.156;2023-06-10T04:47:07;19.47;;;17.37;;
3901;SDS011;1966;49.908;9.156;2023-06-10T04:52:07;18.90;;;15.97;;
3901;SDS011;1966;49.908;9.156;2023-06-10T04:57:06;16.07;;;14.47;;
3901;SDS011;1966;49.908;9.156;2023-06-10T05:02:07;16.17;;;14.47;;
3901;SDS011;1966;49.908;9.156;2023-06-10T05:07:07;16.90;;;14.93;;
3901;SDS011;1966;49.908;9.156;2023-06-10T05:12:06;20.73;;;17.07;;
3901;SDS011;1966;49.908;9.156;2023-06-10T05:17:08;19.33;;;16.93;;
3901;SDS011;1966;49.908;9.156;2023-06-10T05:22:07;17.37;;;15.57;;
3901;SDS011;1966;49.908;9.156;2023-06-10T05:27:07;18.80;;;16.53;;
3901;SDS011;1966;49.908;9.156;2023-06-10T05:32:08;18.37;;;16.43;;
3901;SDS011;1966;49.908;9.156;2023-06-10T05:37:07;19.20;;;17.17;;
3901;SDS011;1966;49.908;9.156;2023-06-10T05:42:07;18.50;;;16.60;;
3901;SDS011;1966;49.908;9.156;2023-06-10T05:47:08;18.27;;;16.47;;
3901;SDS011;1966;49.908;9.156;2023-06-10T05:52:07;18.87;;;16.63;;
3901;SDS011;1966;49.908;9.156;2023-06-10T05:57:06;21.33;;;18.43;;
3901;SDS011;1966;49.908;9.156;2023-06-10T06:02:05;20.60;;;18.50;;
3901;SDS011;1966;49.908;9.156;2023-06-10T06:07:06;18.93;;;16.80;;
3901;SDS011;1966;49.908;9.156;2023-06-10T06:12:06;19.27;;;17.17;;
3901;SDS011;1966;49.908;9.156;2023-06-10T06:17:06;20.57;;;18.17;;
3901;SDS011;1966;49.908;9.156;2023-06-10T06:22:06;20.03;;;17.93;;
3901;SDS011;1966;49.908;9.156;2023-06-10T06:27:05;25.33;;;17.50;;
3901;SDS011;1966;49.908;9.156;2023-06-10T06:32:05;28.20;;;17.10;;
3901;SDS011;1966;49.908;9.156;2023-06-10T06:37:04;18.60;;;16.60;;
3901;SDS011;1966;49.908;9.156;2023-06-10T06:42:06;18.80;;;15.93;;
3901;SDS011;1966;49.908;9.156;2023-06-10T06:47:05;17.03;;;15.33;;
3901;SDS011;1966;49.908;9.156;2023-06-10T06:52:05;17.00;;;14.97;;
3901;SDS011;1966;49.908;9.156;2023-06-10T06:57:06;16.67;;;15.07;;
3901;SDS011;1966;49.908;9.156;2023-06-10T07:02:05;19.03;;;14.07;;
3901;SDS011;1966;49.908;9.156;2023-06-10T07:07:06;16.33;;;14.57;;
3901;SDS011;1966;49.908;9.156;2023-06-10T07:12:08;17.53;;;15.73;;
3901;SDS011;1966;49.908;9.156;2023-06-10T07:17:07;15.63;;;13.93;;
3901;SDS011;1966;49.908;9.156;2023-06-10T07:22:06;14.47;;;13.07;;
3901;SDS011;1966;49.908;9.156;2023-06-10T07:27:08;16.17;;;14.57;;
3901;SDS011;1966;49.908;9.156;2023-06-10T07:32:08;14.90;;;11.83;;
3901;SDS011;1966;49.908;9.156;2023-06-10T07:37:07;14.13;;;12.83;;
3901;SDS011;1966;49.908;9.156;2023-06-10T07:42:08;14.00;;;11.43;;
3901;SDS011;1966;49.908;9.156;2023-06-10T07:47:09;16.63;;;12.17;;
3901;SDS011;1966;49.908;9.156;2023-06-10T07:52:08;13.30;;;11.60;;
3901;SDS011;1966;49.908;9.156;2023-06-10T07:57:08;13.73;;;12.20;;
3901;SDS011;1966;49.908;9.156;2023-06-10T08:02:08;12.63;;;11.10;;
3901;SDS011;1966;49.908;9.156;2023-06-10T08:07:07;12.30;;;11.00;;
3901;SDS011;1966;49.908;9.156;2023-06-10T08:12:07;12.13;;;11.03;;
3901;SDS011;1966;49.908;9.156;2023-06-10T08:17:07;17.60;;;12.00;;
3901;SDS011;1966;49.908;9.156;2023-06-10T08:22:06;12.03;;;10.83;;
3901;SDS011;1966;49.908;9.156;2023-06-10T08:27:06;11.90;;;10.40;;
3901;SDS011;1966;49.908;9.156;2023-06-10T08:32:05;12.37;;;11.13;;
3901;SDS011;1966;49.908;9.156;2023-06-10T08:37:06;14.10;;;11.43;;
3901;SDS011;1966;49.908;9.156;2023-06-10T08:42:09;7.93;;;6.90;;
3901;SDS011;1966;49.908;9.156;2023-06-10T08:47:11;7.90;;;7.07;;
3901;SDS011;1966;49.908;9.156;2023-06-10T08:52:14;7.57;;;6.87;;
3901;SDS011;1966;49.908;9.156;2023-06-10T08:57:14;6.50;;;5.90;;
3901;SDS011;1966;49.908;9.156;2023-06-10T09:02:14;6.60;;;6.00;;
3901;SDS011;1966;49.908;9.156;2023-06-10T09:07:15;7.00;;;6.33;;
3901;SDS011;1966;49.908;9.156;2023-06-10T09:12:15;7.47;;;6.27;;
3901;SDS011;1966;49.908;9.156;2023-06-10T09:17:14;6.73;;;6.10;;
3901;SDS011;1966;49.908;9.156;2023-06-10T09:22:15;7.00;;;6.30;;
3901;SDS011;1966;49.908;9.156;2023-06-10T09:27:14;7.20;;;6.50;;
3901;SDS011;1966;49.908;9.156;2023-06-10T09:32:14;7.27;;;6.20;;
3901;SDS011;1966;49.908;9.156;2023-06-10T09:37:15;6.73;;;6.00;;
3901;SDS011;1966;49.908;9.156;2023-06-10T09:42:18;6.60;;;5.90;;
3901;SDS011;1966;49.908;9.156;2023-06-10T09:47:21;6.30;;;5.70;;
3901;SDS011;1966;49.908;9.156;2023-06-10T09:52:22;6.03;;;5.53;;
3901;SDS011;1966;49.908;9.156;2023-06-10T09:57:22;6.30;;;5.80;;
3901;SDS011;1966;49.908;9.156;2023-06-10T10:02:21;6.50;;;5.60;;
3901;SDS011;1966;49.908;9.156;2023-06-10T10:07:22;6.40;;;5.77;;
3901;SDS011;1966;49.908;9.156;2023-06-10T10:12:21;6.30;;;5.80;;
3901;SDS011;1966;49.908;9.156;2023-06-10T10:17:22;6.27;;;5.73;;
3901;SDS011;1966;49.908;9.156;2023-06-10T10:22:24;5.70;;;5.20;;
3901;SDS011;1966;49.908;9.156;2023-06-10T10:27:26;5.40;;;5.00;;
3901;SDS011;1966;49.908;9.156;2023-06-10T10:32:26;6.10;;;5.30;;
3901;SDS011;1966;49.908;9.156;2023-06-10T10:37:29;6.68;;;5.05;;
3901;SDS011;1966;49.908;9.156;2023-06-10T10:42:28;5.50;;;5.05;;
3901;SDS011;1966;49.908;9.156;2023-06-10T10:47:28;5.80;;;5.28;;
3901;SDS011;1966;49.908;9.156;2023-06-10T10:52:46;6.60;;;4.40;;
3901;SDS011;1966;49.908;9.156;2023-06-10T10:57:46;5.00;;;4.70;;
3901;SDS011;1966;49.908;9.156;2023-06-10T11:02:52;7.50;;;4.68;;
3901;SDS011;1966;49.908;9.156;2023-06-10T11:07:54;5.15;;;4.75;;
3901;SDS011;1966;49.908;9.156;2023-06-10T11:12:54;4.53;;;4.20;;
3901;SDS011;1966;49.908;9.156;2023-06-10T11:23:16;5.07;;;4.68;;
3901;SDS011;1966;49.908;9.156;2023-06-10T11:28:23;5.13;;;4.65;;
3901;SDS011;1966;49.908;9.156;2023-06-10T11:33:26;5.70;;;5.10;;
3901;SDS011;1966;49.908;9.156;2023-06-10T11:38:27;5.72;;;5.22;;
3901;SDS011;1966;49.908;9.156;2023-06-10T11:43:27;5.45;;;5.00;;
3901;SDS011;1966;49.908;9.156;2023-06-10T11:48:26;5.30;;;4.80;;
3901;SDS011;1966;49.908;9.156;2023-06-10T11:53:27;5.80;;;4.63;;
3901;SDS011;1966;49.908;9.156;2023-06-10T11:58:27;4.88;;;4.57;;
3901;SDS011;1966;49.908;9.156;2023-06-10T12:03:26;4.53;;;4.13;;
3901;SDS011;1966;49.908;9.156;2023-06-10T12:08:25;5.00;;;4.60;;
3901;SDS011;1966;49.908;9.156;2023-06-10T12:13:26;5.85;;;4.97;;
3901;SDS011;1966;49.908;9.156;2023-06-10T12:18:26;5.15;;;4.75;;
3901;SDS011;1966;49.908;9.156;2023-06-10T12:23:25;4.45;;;4.03;;
3901;SDS011;1966;49.908;9.156;2023-06-10T12:28:25;4.68;;;4.38;;
3901;SDS011;1966;49.908;9.156;2023-06-10T12:33:25;5.82;;;4.20;;
3901;SDS011;1966;49.908;9.156;2023-06-10T12:38:25;4.20;;;3.90;;
3901;SDS011;1966;49.908;9.156;2023-06-10T12:43:25;6.82;;;4.00;;
3901;SDS011;1966;49.908;9.156;2023-06-10T12:48:26;3.88;;;3.65;;
3901;SDS011;1966;49.908;9.156;2023-06-10T12:53:25;4.10;;;3.80;;
3901;SDS011;1966;49.908;9.156;2023-06-10T12:58:25;3.67;;;3.47;;
3901;SDS011;1966;49.908;9.156;2023-06-10T13:03:26;3.90;;;3.55;;
3901;SDS011;1966;49.908;9.156;2023-06-10T13:08:25;4.50;;;4.20;;
3901;SDS011;1966;49.908;9.156;2023-06-10T13:13:24;9.13;;;4.40;;
3901;SDS011;1966;49.908;9.156;2023-06-10T13:18:25;4.15;;;3.85;;
3901;SDS011;1966;49.908;9.156;2023-06-10T13:23:25;3.75;;;3.50;;
3901;SDS011;1966;49.908;9.156;2023-06-10T13:28:24;7.57;;;3.25;;
3901;SDS011;1966;49.908;9.156;2023-06-10T13:33:23;3.40;;;3.10;;
3901;SDS011;1966;49.908;9.156;2023-06-10T13:38:24;3.55;;;3.35;;
3901;SDS011;1966;49.908;9.156;2023-06-10T13:43:23;4.03;;;3.50;;
3901;SDS011;1966;49.908;9.156;2023-06-10T13:48:22;4.50;;;3.22;;
3901;SDS011;1966;49.908;9.156;2023-06-10T13:53:23;3.50;;;3.25;;
3901;SDS011;1966;49.908;9.156;2023-06-10T13:58:22;7.43;;;3.03;;
3901;SDS011;1966;49.908;9.156;2023-06-10T14:03:22;3.30;;;3.00;;
3901;SDS011;1966;49.908;9.156;2023-06-10T14:08:21;3.15;;;2.95;;
3901;SDS011;1966;49.908;9.156;2023-06-10T14:13:22;3.13;;;2.90;;
3901;SDS011;1966;49.908;9.156;2023-06-10T14:18:21;4.35;;;3.15;;
3901;SDS011;1966;49.908;9.156;2023-06-10T14:23:21;3.70;;;3.33;;
3901;SDS011;1966;49.908;9.156;2023-06-10T14:28:20;2.80;;;2.67;;
3901;SDS011;1966;49.908;9.156;2023-06-10T14:33:21;3.67;;;3.47;;
3901;SDS011;1966;49.908;9.156;2023-06-10T14:38:21;4.45;;;4.15;;
3901;SDS011;1966;49.908;9.156;2023-06-10T14:43:20;3.75;;;3.50;;
3901;SDS011;1966;49.908;9.156;2023-06-10T14:48:19;3.20;;;3.00;;
3901;SDS011;1966;49.908;9.156;2023-06-10T14:53:20;3.33;;;3.03;;
3901;SDS011;1966;49.908;9.156;2023-06-10T14:58:19;3.35;;;3.05;;
3901;SDS011;1966;49.908;9.156;2023-06-10T15:03:18;3.15;;;2.92;;
3901;SDS011;1966;49.908;9.156;2023-06-10T15:08:19;2.80;;;2.70;;
3901;SDS011;1966;49.908;9.156;2023-06-10T15:13:18;2.83;;;2.70;;
3901;SDS011;1966;49.908;9.156;2023-06-10T15:18:17;3.10;;;2.90;;
3901;SDS011;1966;49.908;9.156;2023-06-10T15:23:17;2.90;;;2.70;;
3901;SDS011;1966;49.908;9.156;2023-06-10T15:28:17;3.10;;;2.90;;
3901;SDS011;1966;49.908;9.156;2023-06-10T15:33:17;3.45;;;3.25;;
3901;SDS011;1966;49.908;9.156;2023-06-10T15:38:16;2.90;;;2.80;;
3901;SDS011;1966;49.908;9.156;2023-06-10T15:43:15;3.35;;;3.15;;
3901;SDS011;1966;49.908;9.156;2023-06-10T15:48:16;3.40;;;3.20;;
3901;SDS011;1966;49.908;9.156;2023-06-10T15:53:15;3.80;;;3.50;;
3901;SDS011;1966;49.908;9.156;2023-06-10T15:58:14;4.80;;;4.40;;
3901;SDS011;1966;49.908;9.156;2023-06-10T16:03:13;5.45;;;4.95;;
3901;SDS011;1966;49.908;9.156;2023-06-10T16:08:14;5.35;;;4.85;;
3901;SDS011;1966;49.908;9.156;2023-06-10T16:13:14;5.20;;;4.80;;
3901;SDS011;1966;49.908;9.156;2023-06-10T16:18:13;4.43;;;4.03;;
3901;SDS011;1966;49.908;9.156;2023-06-10T16:23:12;4.78;;;4.47;;
3901;SDS011;1966;49.908;9.156;2023-06-10T16:28:13;5.13;;;4.63;;
3901;SDS011;1966;49.908;9.156;2023-06-10T16:33:12;5.15;;;4.75;;
3901;SDS011;1966;49.908;9.156;2023-06-10T16:38:11;5.03;;;4.67;;
3901;SDS011;1966;49.908;9.156;2023-06-10T16:43:12;6.10;;;5.60;;
3901;SDS011;1966;49.908;9.156;2023-06-10T16:48:11;6.17;;;5.60;;
3901;SDS011;1966;49.908;9.156;2023-06-10T16:53:11;7.20;;;6.43;;
3901;SDS011;1966;49.908;9.156;2023-06-10T16:58:12;7.10;;;6.40;;
3901;SDS011;1966;49.908;9.156;2023-06-10T17:03:11;8.83;;;5.80;;
3901;SDS011;1966;49.908;9.156;2023-06-10T17:08:11;5.82;;;5.35;;
3901;SDS011;1966;49.908;9.156;2023-06-10T17:13:10;6.45;;;5.95;;
3901;SDS011;1966;49.908;9.156;2023-06-10T17:18:10;5.65;;;5.15;;
3901;SDS011;1966;49.908;9.156;2023-06-10T17:23:10;5.32;;;4.82;;
3901;SDS011;1966;49.908;9.156;2023-06-10T17:28:09;5.68;;;5.18;;
3901;SDS011;1966;49.908;9.156;2023-06-10T17:33:08;5.20;;;4.75;;
3901;SDS011;1966;49.908;9.156;2023-06-10T17:38:09;5.22;;;4.82;;
3901;SDS011;1966;49.908;9.156;2023-06-10T17:43:08;5.00;;;4.60;;
3901;SDS011;1966;49.908;9.156;2023-06-10T17:48:07;5.47;;;5.07;;
3901;SDS011;1966;49.908;9.156;2023-06-10T17:53:08;6.07;;;5.50;;
3901;SDS011;1966;49.908;9.156;2023-06-10T17:58:07;6.75;;;6.13;;
3901;SDS011;1966;49.908;9.156;2023-06-10T18:03:07;6.70;;;6.20;;
3901;SDS011;1966;49.908;9.156;2023-06-10T18:08:06;6.07;;;5.47;;
3901;SDS011;1966;49.908;9.156;2023-06-10T18:13:06;6.35;;;5.80;;
3901;SDS011;1966;49.908;9.156;2023-06-10T18:18:06;7.50;;;6.70;;
3901;SDS011;1966;49.908;9.156;2023-06-10T18:23:05;7.53;;;6.88;;
3901;SDS011;1966;49.908;9.156;2023-06-10T18:28:04;6.20;;;5.70;;
3901;SDS011;1966;49.908;9.156;2023-06-10T18:33:05;7.50;;;6.87;;
3901;SDS011;1966;49.908;9.156;2023-06-10T18:38:04;8.03;;;7.33;;
3901;SDS011;1966;49.908;9.156;2023-06-10T18:43:03;8.10;;;7.30;;
3901;SDS011;1966;49.908;9.156;2023-06-10T18:48:03;8.97;;;7.37;;
3901;SDS011;1966;49.908;9.156;2023-06-10T18:53:03;9.23;;;8.23;;
3901;SDS011;1966;49.908;9.156;2023-06-10T18:58:03;9.03;;;8.20;;
3901;SDS011;1966;49.908;9.156;2023-06-10T19:03:02;8.90;;;8.20;;
3901;SDS011;1966;49.908;9.156;2023-06-10T19:08:02;8.80;;;8.10;;
3901;SDS011;1966;49.908;9.156;2023-06-10T19:13:02;9.33;;;8.53;;
3901;SDS011;1966;49.908;9.156;2023-06-10T19:18:01;9.00;;;8.20;;
3901;SDS011;1966;49.908;9.156;2023-06-10T19:23:01;9.47;;;8.57;;
3901;SDS011;1966;49.908;9.156;2023-06-10T19:28:00;9.53;;;8.53;;
3901;SDS011;1966;49.908;9.156;2023-06-10T19:33:01;10.13;;;9.10;;
3901;SDS011;1966;49.908;9.156;2023-06-10T19:38:00;10.27;;;8.70;;
3901;SDS011;1966;49.908;9.156;2023-06-10T19:43:00;9.20;;;8.30;;
3901;SDS011;1966;49.908;9.156;2023-06-10T19:47:59;9.30;;;8.30;;
3901;SDS011;1966;49.908;9.156;2023-06-10T19:53:00;9.03;;;7.90;;
3901;SDS011;1966;49.908;9.156;2023-06-10T19:57:59;8.30;;;7.60;;
3901;SDS011;1966;49.908;9.156;2023-06-10T20:02:58;9.00;;;8.20;;
3901;SDS011;1966;49.908;9.156;2023-06-10T20:07:58;8.80;;;8.00;;
3901;SDS011;1966;49.908;9.156;2023-06-10T20:12:58;12.70;;;9.10;;
3901;SDS011;1966;49.908;9.156;2023-06-10T20:17:57;10.43;;;9.50;;
3901;SDS011;1966;49.908;9.156;2023-06-10T20:22:57;9.13;;;8.20;;
3901;SDS011;1966;49.908;9.156;2023-06-10T20:27:56;9.90;;;9.00;;
3901;SDS011;1966;49.908;9.156;2023-06-10T20:32:56;9.97;;;8.97;;
3901;SDS011;1966;49.908;9.156;2023-06-10T20:37:56;9.00;;;8.20;;
3901;SDS011;1966;49.908;9.156;2023-06-10T20:42:55;8.50;;;7.80;;
3901;SDS011;1966;49.908;9.156;2023-06-10T20:47:54;11.40;;;8.60;;
3901;SDS011;1966;49.908;9.156;2023-06-10T20:52:55;11.00;;;8.20;;
3901;SDS011;1966;49.908;9.156;2023-06-10T20:57:54;9.13;;;8.23;;
3901;SDS011;1966;49.908;9.156;2023-06-10T21:02:56;8.53;;;7.73;;
3901;SDS011;1966;49.908;9.156;2023-06-10T21:07:56;9.03;;;8.00;;
3901;SDS011;1966;49.908;9.156;2023-06-10T21:12:56;10.37;;;8.00;;
3901;SDS011;1966;49.908;9.156;2023-06-10T21:17:55;10.10;;;8.20;;
3901;SDS011;1966;49.908;9.156;2023-06-10T21:22:54;8.80;;;7.90;;
3901;SDS011;1966;49.908;9.156;2023-06-10T21:27:55;9.17;;;8.17;;
3901;SDS011;1966;49.908;9.156;2023-06-10T21:32:54;8.80;;;8.00;;
3901;SDS011;1966;49.908;9.156;2023-06-10T21:37:53;9.57;;;7.93;;
3901;SDS011;1966;49.908;9.156;2023-06-10T21:42:52;8.90;;;8.10;;
3901;SDS011;1966;49.908;9.156;2023-06-10T21:47:53;9.10;;;8.20;;
3901;SDS011;1966;49.908;9.156;2023-06-10T21:52:52;8.47;;;7.73;;
3901;SDS011;1966;49.908;9.156;2023-06-10T21:57:51;9.00;;;8.10;;
3901;SDS011;1966;49.908;9.156;2023-06-10T22:02:51;9.33;;;8.37;;
3901;SDS011;1966;49.908;9.156;2023-06-10T22:07:52;8.57;;;7.83;;
3901;SDS011;1966;49.908;9.156;2023-06-10T22:12:51;8.57;;;7.77;;
3901;SDS011;1966;49.908;9.156;2023-06-10T22:17:50;8.93;;;8.07;;
3901;SDS011;1966;49.908;9.156;2023-06-10T22:22:49;9.67;;;8.70;;
3901;SDS011;1966;49.908;9.156;2023-06-10T22:27:50;9.87;;;8.97;;
3901;SDS011;1966;49.908;9.156;2023-06-10T22:32:49;9.37;;;8.50;;
3901;SDS011;1966;49.908;9.156;2023-06-10T22:37:48;9.60;;;8.60;;
3901;SDS011;1966;49.908;9.156;2023-06-10T22:42:48;19.50;;;8.83;;
3901;SDS011;1966;49.908;9.156;2023-06-10T22:47:48;12.97;;;9.90;;
3901;SDS011;1966;49.908;9.156;2023-06-10T22:52:48;11.60;;;7.90;;
3901;SDS011;1966;49.908;9.156;2023-06-10T22:57:48;9.93;;;9.00;;
3901;SDS011;1966;49.908;9.156;2023-06-10T23:02:48;10.37;;;9.37;;
3901;SDS011;1966;49.908;9.156;2023-06-10T23:07:47;9.73;;;8.73;;
3901;SDS011;1966;49.908;9.156;2023-06-10T23:12:47;9.60;;;8.70;;
3901;SDS011;1966;49.908;9.156;2023-06-10T23:17:46;8.70;;;7.73;;
3901;SDS011;1966;49.908;9.156;2023-06-10T23:22:47;9.80;;;8.80;;
3901;SDS011;1966;49.908;9.156;2023-06-10T23:27:49;9.13;;;8.23;;
3901;SDS011;1966;49.908;9.156;2023-06-10T23:32:49;9.43;;;8.60;;
3901;SDS011;1966;49.908;9.156;2023-06-10T23:37:49;9.63;;;8.73;;
3901;SDS011;1966;49.908;9.156;2023-06-10T23:42:48;9.47;;;8.47;;
3901;SDS011;1966;49.908;9.156;2023-06-10T23:47:48;9.67;;;8.73;;
3901;SDS011;1966;49.908;9.156;2023-06-10T23:52:50;10.00;;;9.10;;
3901;SDS011;1966;49.908;9.156;2023-06-10T23:57:50;9.13;;;8.00;;
